Time;durP1;ratioP1;P1;durP2;ratioP2;P2;SDS_P1;SDS_P2;PMS_P1;PMS_P2;Temp;Humidity;BMP_temperature;BMP_pressure;BME280_temperature;BME280_humidity;BME280_pressure;Samples;Min_cycle;Max_cycle;Signal;HPM_P1;HPM_P2
2021/01/23 00:02:15;;;;;;;56.70;30.85;;;5.00;94.40;;;;;;4998817;28;20204;-84
2021/01/23 00:04:42;;;;;;;42.67;29.20;;;5.00;94.30;;;;;;5015125;28;20655;-82
2021/01/23 00:07:09;;;;;;;51.80;30.80;;;4.90;94.40;;;;;;4990548;28;20205;-83
2021/01/23 00:09:36;;;;;;;47.75;30.33;;;4.80;94.50;;;;;;4995691;28;20281;-82
2021/01/23 00:12:04;;;;;;;54.13;31.08;;;4.60;95.00;;;;;;4993014;28;20519;-81
2021/01/23 00:14:31;;;;;;;44.30;29.88;;;4.60;95.20;;;;;;4993637;28;20245;-80
2021/01/23 00:16:59;;;;;;;39.35;28.65;;;4.60;95.50;;;;;;4993879;28;20256;-83
2021/01/23 00:19:26;;;;;;;43.47;27.95;;;4.50;95.40;;;;;;4993996;28;20264;-82
2021/01/23 00:21:54;;;;;;;47.13;29.77;;;4.40;95.50;;;;;;4993449;28;20215;-82
2021/01/23 00:24:20;;;;;;;43.38;26.45;;;4.40;95.40;;;;;;4981493;28;20279;-83
2021/01/23 00:26:47;;;;;;;39.38;27.00;;;4.50;95.40;;;;;;4980583;28;20564;-85
2021/01/23 00:29:15;;;;;;;46.67;27.02;;;4.60;95.20;;;;;;4997416;28;20241;-82
2021/01/23 00:31:42;;;;;;;45.22;27.75;;;4.40;95.20;;;;;;4979244;28;20519;-82
2021/01/23 00:34:12;;;;;;;36.03;23.02;;;4.40;95.10;;;;;;4994163;28;20225;-83
2021/01/23 00:36:39;;;;;;;37.70;23.90;;;4.40;95.10;;;;;;4996625;28;20280;-82
2021/01/23 00:39:06;;;;;;;39.33;24.60;;;4.40;94.90;;;;;;4994132;28;20204;-76
2021/01/23 00:41:35;;;;;;;42.35;24.67;;;4.40;95.00;;;;;;4995863;28;20292;-79
2021/01/23 00:44:02;;;;;;;37.80;24.40;;;4.30;95.00;;;;;;5009594;28;20285;-78
2021/01/23 00:46:29;;;;;;;37.00;24.50;;;4.40;95.00;;;;;;4992356;28;20278;-80
2021/01/23 00:48:56;;;;;;;43.30;25.90;;;4.40;94.90;;;;;;4995202;28;20253;-81
2021/01/23 00:51:23;;;;;;;40.22;25.90;;;4.40;94.90;;;;;;4996057;28;20255;-81
2021/01/23 00:53:49;;;;;;;40.25;24.65;;;4.40;94.90;;;;;;4979504;28;20219;-81
2021/01/23 00:56:16;;;;;;;41.28;25.55;;;4.40;94.90;;;;;;5000614;28;20236;-83
2021/01/23 00:58:43;;;;;;;44.28;24.85;;;4.40;94.80;;;;;;4997364;28;20602;-83
2021/01/23 01:01:09;;;;;;;41.95;25.95;;;4.40;94.80;;;;;;4982139;28;20578;-84
2021/01/23 01:03:36;;;;;;;41.75;25.10;;;4.50;94.60;;;;;;4980032;28;20529;-82
2021/01/23 01:06:03;;;;;;;42.72;24.20;;;4.40;94.80;;;;;;4998017;28;20328;-83
2021/01/23 01:08:29;;;;;;;43.22;24.35;;;4.50;94.80;;;;;;4995932;28;20231;-83
2021/01/23 01:10:56;;;;;;;33.35;23.58;;;4.50;94.50;;;;;;4990419;28;20217;-81
2021/01/23 01:13:23;;;;;;;36.47;24.20;;;4.50;94.40;;;;;;4997004;28;20252;-81
2021/01/23 01:15:50;;;;;;;37.47;22.67;;;4.50;94.30;;;;;;5000373;28;20292;-81
2021/01/23 01:18:17;;;;;;;40.70;24.25;;;4.30;94.70;;;;;;5014340;28;20210;-81
2021/01/23 01:20:44;;;;;;;38.72;25.13;;;4.40;94.70;;;;;;5001846;28;20231;-82
2021/01/23 01:23:11;;;;;;;37.33;23.33;;;4.40;94.60;;;;;;4999296;28;20223;-79
2021/01/23 01:25:37;;;;;;;41.45;24.38;;;4.60;94.50;;;;;;5002849;28;20209;-83
2021/01/23 01:28:04;;;;;;;39.63;24.02;;;4.80;94.20;;;;;;5001029;28;20232;-82
2021/01/23 01:30:30;;;;;;;40.17;24.20;;;4.70;94.10;;;;;;4984209;28;20226;-83
2021/01/23 01:32:57;;;;;;;35.42;24.20;;;4.70;94.30;;;;;;4996362;28;20572;-84
2021/01/23 01:35:24;;;;;;;40.65;24.42;;;4.80;94.00;;;;;;4985580;28;20220;-83
2021/01/23 01:37:51;;;;;;;36.53;23.35;;;5.10;93.70;;;;;;4998840;28;20198;-83
2021/01/23 01:40:17;;;;;;;39.08;24.00;;;5.20;93.20;;;;;;5000456;28;20237;-83
2021/01/23 01:42:44;;;;;;;40.13;25.08;;;5.00;93.30;;;;;;5002146;28;20224;-83
2021/01/23 01:45:11;;;;;;;39.90;24.23;;;5.10;93.30;;;;;;4999522;28;20550;-82
2021/01/23 01:47:40;;;;;;;41.20;24.38;;;5.00;93.20;;;;;;4999334;28;20230;-82
2021/01/23 01:50:07;;;;;;;40.63;24.92;;;5.20;93.10;;;;;;5000263;28;20198;-81
2021/01/23 01:52:35;;;;;;;39.55;25.75;;;5.30;92.80;;;;;;5002306;28;20277;-81
2021/01/23 01:55:04;;;;;;;35.17;25.80;;;5.50;92.70;;;;;;4980617;28;20206;-81
2021/01/23 01:57:30;;;;;;;34.78;23.00;;;5.80;92.10;;;;;;4998695;28;20288;-82
2021/01/23 01:59:57;;;;;;;40.88;24.17;;;6.00;91.30;;;;;;4980732;28;20281;-82
2021/01/23 02:02:43;;;;;;;38.00;22.23;;;5.90;91.40;;;;;;4996247;28;20554;-83
2021/01/23 02:05:22;;;;;;;30.80;21.75;;;6.20;91.20;;;;;;5006927;28;20435;-81
2021/01/23 02:08:29;;;;;;;31.73;21.98;;;6.10;90.70;;;;;;4999736;28;20741;-81
2021/01/23 02:11:05;;;;;;;33.17;22.58;;;5.70;91.40;;;;;;4994636;28;20233;-81
2021/01/23 02:13:44;;;;;;;38.03;23.35;;;5.60;92.00;;;;;;5012397;28;20346;-82
2021/01/23 02:16:27;;;;;;;32.05;21.30;;;5.80;91.60;;;;;;4997895;28;20716;-83
2021/01/23 02:19:10;;;;;;;41.45;24.92;;;6.00;91.40;;;;;;4995515;28;20289;-83
2021/01/23 02:21:51;;;;;;;42.97;26.77;;;6.20;91.10;;;;;;4994904;28;20279;-83
2021/01/23 02:24:23;;;;;;;45.08;24.35;;;6.20;90.90;;;;;;5015035;28;20431;-82
2021/01/23 02:27:04;;;;;;;45.08;25.13;;;6.20;90.60;;;;;;4996151;28;20206;-82
2021/01/23 02:30:05;;;;;;;44.50;23.83;;;6.00;91.00;;;;;;4980500;28;20225;-83
2021/01/23 02:32:37;;;;;;;36.17;22.45;;;6.00;91.30;;;;;;4998594;28;20212;-83
2021/01/23 02:35:10;;;;;;;39.65;23.13;;;6.10;91.20;;;;;;4979264;28;20205;-82
2021/01/23 02:37:38;;;;;;;40.53;25.27;;;6.10;90.80;;;;;;5000878;28;20265;-81
2021/01/23 02:40:06;;;;;;;42.47;26.63;;;5.70;91.60;;;;;;5004932;28;20269;-81
2021/01/23 02:42:33;;;;;;;55.65;29.13;;;5.30;92.50;;;;;;4997432;28;20290;-80
2021/01/23 02:45:00;;;;;;;53.67;29.92;;;5.20;93.10;;;;;;4994735;28;20214;-82
2021/01/23 02:47:27;;;;;;;51.30;26.17;;;5.10;93.20;;;;;;4997652;28;20246;-81
2021/01/23 02:49:53;;;;;;;53.58;26.33;;;5.30;93.20;;;;;;4998439;28;20209;-80
2021/01/23 02:53:03;;;;;;;48.60;25.63;;;5.30;93.10;;;;;;4994508;28;20220;-79
2021/01/23 02:55:33;;;;;;;37.53;22.95;;;5.20;93.20;;;;;;5016737;28;20407;-80
2021/01/23 02:58:04;;;;;;;37.75;23.25;;;5.20;93.20;;;;;;5019154;28;20537;-81
2021/01/23 03:00:35;;;;;;;35.20;21.38;;;5.20;93.20;;;;;;5004550;28;20504;-81
2021/01/23 03:03:03;;;;;;;30.50;21.00;;;5.20;93.30;;;;;;5011524;28;20289;-80
2021/01/23 03:05:32;;;;;;;28.70;21.02;;;5.20;93.30;;;;;;4996015;28;20539;-81
2021/01/23 03:07:59;;;;;;;29.35;20.55;;;5.30;93.30;;;;;;4981217;28;20617;-80
2021/01/23 03:10:34;;;;;;;28.77;19.10;;;5.20;93.40;;;;;;4993809;28;20240;-81
2021/01/23 03:13:01;;;;;;;25.10;18.90;;;5.30;93.40;;;;;;4993627;28;20308;-82
2021/01/23 03:15:28;;;;;;;26.33;19.65;;;5.30;93.20;;;;;;4995586;28;20209;-80
2021/01/23 03:17:55;;;;;;;33.03;19.15;;;5.40;92.90;;;;;;5017827;28;20210;-83
2021/01/23 03:20:22;;;;;;;34.35;19.85;;;5.40;92.60;;;;;;4994237;28;20213;-82
2021/01/23 03:22:48;;;;;;;32.88;20.00;;;5.40;92.80;;;;;;4998187;28;20285;-82
2021/01/23 03:25:15;;;;;;;27.35;19.48;;;5.50;92.60;;;;;;4995412;28;20413;-83
2021/01/23 03:27:42;;;;;;;27.40;17.17;;;5.50;92.70;;;;;;4993838;28;20493;-82
2021/01/23 03:30:09;;;;;;;23.23;18.55;;;5.60;92.50;;;;;;4993764;28;20354;-82
2021/01/23 03:32:36;;;;;;;27.05;18.98;;;5.50;92.60;;;;;;4997086;28;20212;-80
2021/01/23 03:35:04;;;;;;;26.40;17.45;;;5.40;92.70;;;;;;4991927;28;20256;-82
2021/01/23 03:37:33;;;;;;;31.15;18.58;;;5.50;92.70;;;;;;4999820;28;20684;-81
2021/01/23 03:40:03;;;;;;;29.48;22.25;;;5.50;92.70;;;;;;5002409;28;20235;-81
2021/01/23 03:42:30;;;;;;;114.28;52.70;;;5.50;93.00;;;;;;4998021;28;20205;-80
2021/01/23 03:44:57;;;;;;;59.00;35.20;;;5.40;93.00;;;;;;5003823;28;20277;-81
2021/01/23 03:47:24;;;;;;;33.80;22.48;;;5.30;93.30;;;;;;5004664;28;20208;-82
2021/01/23 03:49:50;;;;;;;33.00;23.42;;;5.30;93.40;;;;;;4981433;28;20317;-80
2021/01/23 03:52:17;;;;;;;32.10;22.75;;;5.30;93.50;;;;;;4993399;28;20227;-81
2021/01/23 03:54:44;;;;;;;29.58;21.77;;;5.50;93.40;;;;;;4994989;28;20198;-80
2021/01/23 03:57:11;;;;;;;35.55;20.10;;;5.50;93.40;;;;;;4984187;28;20210;-81
2021/01/23 03:59:37;;;;;;;25.92;19.40;;;5.50;93.40;;;;;;4992923;28;20241;-82
2021/01/23 04:02:04;;;;;;;30.42;23.42;;;5.50;93.40;;;;;;4997156;28;20461;-82
2021/01/23 04:04:31;;;;;;;29.50;23.58;;;5.50;93.50;;;;;;4996239;28;20284;-81
2021/01/23 04:06:58;;;;;;;32.35;22.42;;;5.60;93.50;;;;;;4998466;28;20237;-84
2021/01/23 04:09:25;;;;;;;25.13;19.35;;;5.70;93.50;;;;;;5006022;28;20241;-83
2021/01/23 04:11:52;;;;;;;28.25;20.65;;;5.60;93.50;;;;;;4991801;28;20286;-81
2021/01/23 04:14:19;;;;;;;29.20;21.15;;;5.60;93.50;;;;;;4994634;28;20242;-82
2021/01/23 04:16:47;;;;;;;29.58;20.85;;;5.60;93.70;;;;;;4981473;28;21857;-83
2021/01/23 04:19:14;;;;;;;25.00;21.77;;;5.60;94.00;;;;;;5009015;28;20520;-80
2021/01/23 04:21:41;;;;;;;27.05;19.70;;;5.50;93.70;;;;;;4996600;28;20220;-79
2021/01/23 04:24:08;;;;;;;32.90;23.10;;;5.60;93.70;;;;;;4994403;28;20202;-81
2021/01/23 04:26:35;;;;;;;28.35;20.83;;;5.50;93.90;;;;;;4982401;28;20239;-81
2021/01/23 04:29:03;;;;;;;29.60;22.02;;;5.60;93.90;;;;;;4993009;28;20229;-82
2021/01/23 04:31:30;;;;;;;32.47;21.65;;;5.60;93.80;;;;;;4996451;28;20221;-81
2021/01/23 04:33:56;;;;;;;26.58;21.55;;;5.60;94.00;;;;;;4996333;28;20283;-81
2021/01/23 04:36:23;;;;;;;26.98;20.52;;;5.70;93.90;;;;;;4995876;28;20520;-81
2021/01/23 04:38:49;;;;;;;28.88;21.38;;;5.90;93.80;;;;;;4999545;28;20232;-81
2021/01/23 04:41:16;;;;;;;31.33;21.85;;;6.00;93.30;;;;;;4993780;28;20277;-80
2021/01/23 04:43:46;;;;;;;32.30;20.80;;;5.90;93.40;;;;;;4998290;28;20220;-82
2021/01/23 04:46:13;;;;;;;29.17;21.77;;;6.10;93.10;;;;;;4995530;28;20461;-82
2021/01/23 04:48:40;;;;;;;33.30;22.60;;;6.10;93.00;;;;;;4999695;28;20244;-82
2021/01/23 04:51:07;;;;;;;29.80;21.80;;;6.00;93.00;;;;;;4998930;28;20208;-80
2021/01/23 04:53:34;;;;;;;29.90;22.02;;;6.00;93.10;;;;;;4997874;28;20208;-80
2021/01/23 04:56:03;;;;;;;31.67;20.23;;;6.10;93.00;;;;;;5000850;28;20289;-82
2021/01/23 04:58:29;;;;;;;31.95;23.48;;;6.00;93.30;;;;;;5000400;28;20229;-79
2021/01/23 05:00:56;;;;;;;25.85;20.10;;;5.90;93.60;;;;;;5004823;28;20214;-83
2021/01/23 05:03:23;;;;;;;29.10;22.13;;;5.80;93.90;;;;;;5008029;28;20204;-83
2021/01/23 05:06:10;;;;;;;41.28;23.52;;;5.70;94.30;;;;;;5002857;28;20409;-82
2021/01/23 05:08:40;;;;;;;32.00;22.65;;;5.60;94.80;;;;;;4992193;28;20236;-83
2021/01/23 05:11:06;;;;;;;30.17;23.02;;;5.50;94.90;;;;;;4999198;28;20221;-82
2021/01/23 05:13:33;;;;;;;29.00;21.25;;;5.50;95.00;;;;;;4997563;28;20257;-83
2021/01/23 05:16:00;;;;;;;31.20;23.85;;;5.60;95.00;;;;;;4997872;28;20209;-81
2021/01/23 05:18:26;;;;;;;27.55;21.33;;;5.50;95.10;;;;;;4996821;28;20194;-82
2021/01/23 05:20:54;;;;;;;33.85;23.45;;;5.60;95.20;;;;;;4997333;28;20206;-82
2021/01/23 05:23:25;;;;;;;30.88;21.42;;;5.60;95.30;;;;;;4982959;28;20210;-83
2021/01/23 05:25:59;;;;;;;42.40;24.10;;;5.70;95.10;;;;;;4999361;28;20206;-84
2021/01/23 05:28:34;;;;;;;43.30;23.88;;;5.70;94.90;;;;;;4999766;28;20432;-83
2021/01/23 05:31:04;;;;;;;30.05;23.00;;;5.80;94.90;;;;;;4995942;28;20229;-82
2021/01/23 05:33:33;;;;;;;32.95;24.30;;;5.80;94.90;;;;;;4999081;28;20205;-81
2021/01/23 05:36:03;;;;;;;29.52;21.88;;;5.60;94.90;;;;;;5002060;28;20206;-82
2021/01/23 05:38:35;;;;;;;38.15;24.88;;;5.70;94.90;;;;;;5016002;28;20318;-81
2021/01/23 05:41:08;;;;;;;37.00;25.98;;;5.70;95.00;;;;;;5000251;28;20206;-82
2021/01/23 05:43:38;;;;;;;40.72;25.48;;;5.60;95.20;;;;;;5013731;28;20255;-83
2021/01/23 05:46:12;;;;;;;35.65;26.75;;;5.70;95.20;;;;;;4993678;28;20416;-85
2021/01/23 05:48:42;;;;;;;38.22;26.48;;;5.70;95.00;;;;;;4998359;28;20440;-81
2021/01/23 05:51:09;;;;;;;38.92;26.20;;;5.70;95.10;;;;;;4994781;28;20523;-79
2021/01/23 05:53:36;;;;;;;37.55;23.35;;;5.50;95.40;;;;;;4982078;28;20218;-80
2021/01/23 05:56:03;;;;;;;36.35;25.40;;;5.50;95.50;;;;;;4981658;28;20237;-82
2021/01/23 05:58:31;;;;;;;35.15;24.58;;;5.60;95.50;;;;;;5001568;28;20289;-83
2021/01/23 06:00:59;;;;;;;31.63;24.98;;;5.80;95.30;;;;;;4996428;28;20214;-83
2021/01/23 06:03:41;;;;;;;30.55;24.27;;;5.70;95.30;;;;;;4998023;28;20220;-84
2021/01/23 06:06:08;;;;;;;35.15;24.98;;;5.70;95.10;;;;;;4981902;28;20258;-84
2021/01/23 06:08:41;;;;;;;32.20;22.80;;;5.70;95.20;;;;;;5003311;28;20420;-85
2021/01/23 06:11:19;;;;;;;39.70;24.70;;;5.80;95.10;;;;;;5012276;28;20284;-84
2021/01/23 06:13:57;;;;;;;35.80;23.60;;;5.80;95.10;;;;;;4981851;28;20558;-81
2021/01/23 06:16:32;;;;;;;38.08;25.65;;;5.90;94.90;;;;;;5011702;28;20214;-80
2021/01/23 06:19:20;;;;;;;42.75;24.98;;;5.90;94.70;;;;;;5014179;28;20277;-80
2021/01/23 06:21:47;;;;;;;40.65;26.83;;;5.90;94.80;;;;;;4981557;28;20587;-80
2021/01/23 06:24:15;;;;;;;33.83;25.73;;;5.90;94.90;;;;;;5017185;28;20205;-78
2021/01/23 06:27:01;;;;;;;36.33;25.73;;;5.80;95.00;;;;;;4998063;28;20317;-79
2021/01/23 06:29:37;;;;;;;33.30;24.40;;;5.90;95.00;;;;;;4983053;28;20289;-79
2021/01/23 06:32:27;;;;;;;32.13;24.63;;;5.60;95.00;;;;;;4985500;28;20311;-82
2021/01/23 06:35:01;;;;;;;37.15;25.02;;;6.00;95.00;;;;;;4995532;28;20226;-80
2021/01/23 06:37:33;;;;;;;33.72;25.48;;;5.90;94.90;;;;;;4980722;28;20202;-79
2021/01/23 06:40:03;;;;;;;37.28;26.52;;;5.90;95.20;;;;;;4992208;28;20201;-80
2021/01/23 06:42:31;;;;;;;38.30;25.40;;;5.90;95.30;;;;;;4996647;28;20228;-80
2021/01/23 06:45:26;;;;;;;37.22;27.02;;;6.00;95.10;;;;;;4987175;28;20214;-80
2021/01/23 06:47:58;;;;;;;32.03;25.67;;;6.40;94.80;;;;;;4997973;28;20229;-80
2021/01/23 06:50:39;;;;;;;39.10;24.98;;;6.60;94.20;;;;;;4982512;28;20738;-79
2021/01/23 06:53:19;;;;;;;42.65;26.65;;;6.50;93.90;;;;;;4981662;28;20221;-79
2021/01/23 06:55:55;;;;;;;31.30;23.70;;;6.50;94.00;;;;;;4998358;28;20240;-80
2021/01/23 06:58:26;;;;;;;35.88;25.17;;;6.50;93.90;;;;;;4981813;28;20217;-81
2021/01/23 07:00:54;;;;;;;29.38;24.60;;;6.30;93.90;;;;;;4979996;28;20214;-79
2021/01/23 07:03:21;;;;;;;38.20;26.08;;;6.20;94.50;;;;;;4992729;28;20210;-80
2021/01/23 07:05:50;;;;;;;38.53;25.33;;;5.90;94.20;;;;;;4978704;28;20229;-80
2021/01/23 07:08:25;;;;;;;38.95;25.38;;;6.50;94.20;;;;;;4987260;28;20254;-79
2021/01/23 07:11:04;;;;;;;36.58;24.83;;;6.40;94.00;;;;;;4999347;28;20516;-81
2021/01/23 07:13:30;;;;;;;38.50;26.08;;;6.30;94.50;;;;;;5012144;28;20256;-81
2021/01/23 07:15:57;;;;;;;36.80;24.95;;;6.30;94.40;;;;;;4981649;28;20261;-81
2021/01/23 07:18:25;;;;;;;36.85;25.85;;;6.50;94.10;;;;;;4997982;28;20221;-76
2021/01/23 07:20:53;;;;;;;38.75;26.38;;;6.60;93.80;;;;;;4991875;28;20217;-80
2021/01/23 07:23:20;;;;;;;37.28;25.65;;;6.70;93.60;;;;;;4979752;28;20280;-78
2021/01/23 07:25:50;;;;;;;34.20;26.80;;;6.70;93.60;;;;;;5010440;28;20273;-79
2021/01/23 07:28:20;;;;;;;44.97;29.05;;;6.80;93.40;;;;;;5010654;28;20234;-78
2021/01/23 07:30:47;;;;;;;34.78;25.92;;;6.90;93.50;;;;;;4986560;28;20238;-78
2021/01/23 07:33:32;;;;;;;35.95;25.92;;;7.10;92.80;;;;;;5010340;28;20207;-80
2021/01/23 07:35:59;;;;;;;35.65;27.08;;;7.00;92.90;;;;;;4993442;28;20221;-81
2021/01/23 07:38:27;;;;;;;33.80;25.75;;;6.80;93.30;;;;;;4997327;28;20453;-79
2021/01/23 07:40:57;;;;;;;40.35;26.95;;;6.70;93.40;;;;;;4992634;28;20214;-79
2021/01/23 07:43:24;;;;;;;36.38;25.48;;;6.90;93.30;;;;;;4979237;28;20276;-78
2021/01/23 07:45:55;;;;;;;41.17;27.88;;;6.90;93.20;;;;;;5014610;28;20206;-81
2021/01/23 07:48:23;;;;;;;33.53;27.08;;;6.80;93.40;;;;;;4997448;28;20490;-79
2021/01/23 07:50:49;;;;;;;33.45;24.52;;;7.10;93.30;;;;;;4999955;28;20212;-80
2021/01/23 07:53:20;;;;;;;34.88;27.35;;;7.20;92.80;;;;;;4980357;28;20277;-80
2021/01/23 07:55:47;;;;;;;34.50;26.83;;;7.20;92.40;;;;;;5012014;28;20213;-78
2021/01/23 07:58:14;;;;;;;42.53;29.15;;;7.30;92.60;;;;;;5010998;28;20220;-78
2021/01/23 08:00:42;;;;;;;33.45;27.33;;;7.40;92.40;;;;;;4993690;28;20206;-79
2021/01/23 08:03:09;;;;;;;33.97;26.65;;;7.50;91.90;;;;;;4977922;28;20520;-79
2021/01/23 08:05:50;;;;;;;44.03;28.77;;;7.80;91.60;;;;;;4996313;28;20225;-77
2021/01/23 08:08:36;;;;;;;38.97;27.15;;;7.50;91.70;;;;;;4978766;28;20412;-80
2021/01/23 08:11:05;;;;;;;43.65;27.33;;;7.30;92.00;;;;;;4977606;28;20547;-80
2021/01/23 08:13:34;;;;;;;37.47;28.70;;;7.30;92.10;;;;;;4980423;28;20470;-80
2021/01/23 08:16:12;;;;;;;42.33;31.77;;;7.10;92.10;;;;;;4995492;28;20214;-79
2021/01/23 08:18:40;;;;;;;48.45;30.52;;;7.10;92.60;;;;;;4981149;28;20202;-78
2021/01/23 08:21:20;;;;;;;46.35;29.67;;;6.90;92.60;;;;;;4994844;28;20244;-80
2021/01/23 08:23:48;;;;;;;48.70;30.20;;;6.80;92.60;;;;;;4995026;28;20248;-81
2021/01/23 08:26:18;;;;;;;52.58;30.33;;;6.80;93.00;;;;;;4990901;28;20214;-80
2021/01/23 08:28:47;;;;;;;37.40;27.60;;;6.70;93.00;;;;;;5016396;28;20272;-79
2021/01/23 08:31:15;;;;;;;37.67;28.80;;;6.70;93.00;;;;;;4982426;28;20256;-80
2021/01/23 08:33:43;;;;;;;49.60;31.10;;;6.90;92.90;;;;;;4985832;28;20222;-81
2021/01/23 08:36:10;;;;;;;35.55;27.60;;;7.00;92.70;;;;;;4993285;28;20237;-80
2021/01/23 08:38:37;;;;;;;61.08;39.47;;;7.00;92.40;;;;;;5016890;28;20217;-78
2021/01/23 08:41:04;;;;;;;49.15;32.75;;;7.00;92.40;;;;;;5010478;28;20206;-80
2021/01/23 08:43:31;;;;;;;51.28;34.38;;;7.00;92.50;;;;;;4977693;28;20234;-80
2021/01/23 08:45:58;;;;;;;41.08;29.10;;;7.10;92.50;;;;;;4995728;28;20484;-80
2021/01/23 08:48:24;;;;;;;36.22;29.38;;;7.10;92.30;;;;;;5011469;28;20398;-80
2021/01/23 08:50:51;;;;;;;42.75;30.23;;;7.10;92.20;;;;;;4982465;28;20508;-77
2021/01/23 08:53:18;;;;;;;49.85;33.25;;;7.10;92.30;;;;;;4979591;28;20420;-80
2021/01/23 08:55:45;;;;;;;41.03;27.05;;;7.10;92.40;;;;;;4980038;28;20393;-81
2021/01/23 08:58:11;;;;;;;41.90;30.52;;;7.10;92.30;;;;;;4980831;28;20198;-79
2021/01/23 09:00:38;;;;;;;47.70;30.73;;;7.20;92.30;;;;;;5008805;28;20665;-80
2021/01/23 09:03:05;;;;;;;42.65;28.85;;;7.30;92.20;;;;;;4993016;28;20211;-80
2021/01/23 09:05:32;;;;;;;40.45;26.17;;;7.50;91.90;;;;;;4980481;28;20218;-80
2021/01/23 09:07:58;;;;;;;32.47;22.05;;;7.40;91.90;;;;;;4993778;28;20737;-80
2021/01/23 09:10:25;;;;;;;38.15;24.67;;;7.40;92.00;;;;;;4995389;28;20210;-80
2021/01/23 09:12:51;;;;;;;34.10;23.45;;;7.50;92.00;;;;;;4992773;28;20214;-80
2021/01/23 09:15:18;;;;;;;35.42;23.25;;;7.60;92.00;;;;;;4995877;28;20301;-79
2021/01/23 09:17:46;;;;;;;34.97;24.00;;;7.70;91.80;;;;;;4999302;28;20209;-80
2021/01/23 09:20:13;;;;;;;36.47;26.80;;;7.70;91.80;;;;;;4980634;28;20211;-81
2021/01/23 09:22:40;;;;;;;59.15;37.92;;;7.80;91.50;;;;;;4993301;28;20206;-82
2021/01/23 09:25:07;;;;;;;39.22;26.45;;;7.90;91.50;;;;;;4999649;28;20512;-80
2021/01/23 09:27:33;;;;;;;42.47;25.48;;;8.00;91.30;;;;;;4992599;28;20300;-80
2021/01/23 09:30:00;;;;;;;46.80;25.10;;;8.10;91.30;;;;;;4979841;28;20420;-81
2021/01/23 09:32:29;;;;;;;55.97;29.30;;;8.10;91.30;;;;;;4992470;28;20452;-80
2021/01/23 09:34:56;;;;;;;40.67;23.23;;;8.20;91.20;;;;;;4980273;28;20246;-78
2021/01/23 09:37:26;;;;;;;37.60;21.65;;;8.30;91.20;;;;;;5000010;28;20272;-80
2021/01/23 09:39:52;;;;;;;42.53;23.02;;;8.40;90.90;;;;;;4999472;28;20225;-80
2021/01/23 09:42:20;;;;;;;29.48;17.83;;;8.70;90.60;;;;;;5016099;28;20223;-79
2021/01/23 09:44:47;;;;;;;26.30;15.52;;;8.80;90.40;;;;;;4996544;28;20210;-80
2021/01/23 09:47:14;;;;;;;24.90;13.43;;;8.90;90.10;;;;;;5000906;28;20411;-80
2021/01/23 09:49:42;;;;;;;21.67;14.10;;;9.00;90.00;;;;;;4986575;28;20235;-81
2021/01/23 09:52:08;;;;;;;29.58;17.38;;;9.10;89.10;;;;;;5002013;28;20207;-81
2021/01/23 09:54:35;;;;;;;23.13;14.50;;;9.30;88.50;;;;;;5001206;28;20306;-81
2021/01/23 09:57:03;;;;;;;19.83;11.95;;;9.30;88.60;;;;;;5010822;28;20234;-82
2021/01/23 09:59:30;;;;;;;19.92;11.63;;;9.50;87.50;;;;;;4996052;28;20250;-81
2021/01/23 10:02:00;;;;;;;18.85;11.10;;;9.50;87.50;;;;;;5014407;28;20219;-78
2021/01/23 10:04:28;;;;;;;22.30;12.93;;;9.50;88.00;;;;;;4986326;28;20234;-81
2021/01/23 10:06:55;;;;;;;21.25;14.48;;;9.60;87.80;;;;;;4998738;28;20223;-81
2021/01/23 10:09:22;;;;;;;23.75;14.13;;;9.60;87.70;;;;;;4992992;28;20354;-81
2021/01/23 10:11:49;;;;;;;21.38;13.07;;;9.60;87.40;;;;;;4987892;28;20220;-81
2021/01/23 10:14:17;;;;;;;17.58;13.13;;;9.70;87.00;;;;;;4989909;28;20240;-81
2021/01/23 10:16:44;;;;;;;17.55;12.68;;;9.80;86.80;;;;;;5000230;28;20212;-81
2021/01/23 10:19:12;;;;;;;21.23;13.25;;;9.90;86.00;;;;;;5020770;28;20260;-81
2021/01/23 10:21:39;;;;;;;22.33;12.73;;;10.00;85.40;;;;;;5014371;28;20206;-79
2021/01/23 10:24:06;;;;;;;12.00;9.65;;;10.20;84.50;;;;;;4992980;28;20208;-80
2021/01/23 10:26:34;;;;;;;11.63;9.00;;;10.30;83.90;;;;;;4995356;28;20200;-80
2021/01/23 10:29:00;;;;;;;14.85;9.68;;;10.50;83.10;;;;;;4990780;28;20236;-79
2021/01/23 10:31:27;;;;;;;14.05;9.35;;;10.50;83.20;;;;;;4999889;28;20434;-81
2021/01/23 10:33:54;;;;;;;10.57;8.57;;;10.60;82.40;;;;;;4993819;28;20216;-79
2021/01/23 10:36:21;;;;;;;16.45;7.85;;;10.60;82.10;;;;;;4995650;28;20213;-79
2021/01/23 10:38:48;;;;;;;9.50;6.85;;;10.70;82.20;;;;;;4995615;28;20212;-80
2021/01/23 10:41:15;;;;;;;9.80;7.85;;;10.70;81.30;;;;;;4997725;28;20201;-80
2021/01/23 10:43:42;;;;;;;9.60;6.80;;;10.80;81.20;;;;;;4995279;28;20347;-80
2021/01/23 10:46:09;;;;;;;11.82;7.82;;;10.80;81.50;;;;;;4995639;28;20418;-81
2021/01/23 10:48:36;;;;;;;8.50;6.40;;;11.00;80.50;;;;;;4994412;28;20246;-83
2021/01/23 10:51:04;;;;;;;11.25;6.85;;;11.00;80.40;;;;;;4996246;28;20236;-81
2021/01/23 10:53:31;;;;;;;7.47;5.97;;;11.00;79.90;;;;;;5010698;28;20232;-84
2021/01/23 10:55:58;;;;;;;7.75;5.65;;;11.00;80.50;;;;;;4997894;28;20282;-80
2021/01/23 10:58:26;;;;;;;11.07;7.45;;;11.00;80.20;;;;;;4995085;28;20214;-78
2021/01/23 11:00:53;;;;;;;8.20;6.38;;;11.00;80.50;;;;;;4995902;28;20595;-81
2021/01/23 11:03:19;;;;;;;6.50;4.80;;;10.90;80.40;;;;;;4996783;28;20254;-81
2021/01/23 11:05:48;;;;;;;8.68;5.80;;;10.80;80.80;;;;;;5000862;28;20245;-80
2021/01/23 11:08:14;;;;;;;13.45;8.80;;;10.80;81.40;;;;;;4992483;28;20221;-81
2021/01/23 11:10:41;;;;;;;6.40;5.18;;;10.60;81.70;;;;;;4995365;28;20213;-82
2021/01/23 11:13:08;;;;;;;6.18;5.22;;;10.60;82.20;;;;;;4996666;28;20310;-80
2021/01/23 11:15:35;;;;;;;13.63;7.05;;;10.60;82.10;;;;;;4996066;28;20200;-79
2021/01/23 11:18:01;;;;;;;14.25;8.40;;;10.60;81.50;;;;;;4994368;28;20236;-81
2021/01/23 11:20:28;;;;;;;7.05;5.85;;;10.60;81.70;;;;;;4993911;28;20287;-81
2021/01/23 11:22:55;;;;;;;9.35;5.95;;;10.60;82.00;;;;;;4990551;28;20247;-82
2021/01/23 11:25:26;;;;;;;5.85;5.35;;;10.50;82.80;;;;;;4997035;28;20236;-81
2021/01/23 11:27:55;;;;;;;6.30;4.90;;;10.40;82.80;;;;;;4988950;28;20224;-81
2021/01/23 11:30:23;;;;;;;6.70;5.45;;;10.40;82.90;;;;;;4992614;28;20573;-81
2021/01/23 11:32:51;;;;;;;7.65;6.00;;;10.40;82.70;;;;;;4988040;28;20208;-81
2021/01/23 11:35:20;;;;;;;8.95;5.72;;;10.40;83.10;;;;;;4994643;28;20215;-81
2021/01/23 11:37:48;;;;;;;6.47;5.25;;;10.40;82.80;;;;;;4995012;28;20211;-81
2021/01/23 11:40:15;;;;;;;10.32;5.72;;;10.40;81.60;;;;;;4996585;28;20251;-81
2021/01/23 11:42:42;;;;;;;9.35;6.88;;;10.50;81.80;;;;;;4994445;28;20199;-81
2021/01/23 11:45:09;;;;;;;6.90;5.10;;;10.60;81.00;;;;;;4994025;28;20243;-81
2021/01/23 11:47:40;;;;;;;12.05;7.05;;;10.50;80.80;;;;;;4985243;28;20208;-81
2021/01/23 11:50:07;;;;;;;9.65;6.45;;;10.50;79.70;;;;;;5001999;28;20231;-80
2021/01/23 11:52:36;;;;;;;8.00;6.47;;;10.50;77.50;;;;;;4996072;28;20446;-81
2021/01/23 11:55:04;;;;;;;12.75;7.78;;;10.60;77.20;;;;;;4990135;28;20363;-81
2021/01/23 11:57:33;;;;;;;9.98;8.27;;;10.70;75.70;;;;;;4995547;28;20222;-80
2021/01/23 11:59:59;;;;;;;12.23;9.68;;;10.50;74.30;;;;;;4996345;28;20588;-79
2021/01/23 12:02:26;;;;;;;9.70;8.07;;;10.50;74.00;;;;;;5019696;28;20621;-80
2021/01/23 12:04:53;;;;;;;8.82;7.30;;;10.50;73.90;;;;;;4984579;28;20510;-80
2021/01/23 12:07:20;;;;;;;12.60;7.85;;;10.50;72.70;;;;;;4990789;28;20239;-79
2021/01/23 12:09:47;;;;;;;9.88;7.82;;;10.60;72.80;;;;;;4991427;28;20305;-81
2021/01/23 12:12:15;;;;;;;14.50;8.20;;;10.70;71.70;;;;;;4996328;28;20533;-79
2021/01/23 12:14:42;;;;;;;10.63;8.00;;;11.00;71.20;;;;;;5005454;28;20506;-80
2021/01/23 12:17:10;;;;;;;12.75;8.80;;;11.40;69.70;;;;;;4996931;28;20431;-80
2021/01/23 12:19:37;;;;;;;11.23;8.23;;;11.60;68.90;;;;;;4996700;28;20216;-81
2021/01/23 12:22:04;;;;;;;10.65;9.55;;;11.40;68.00;;;;;;4996363;28;20413;-82
2021/01/23 12:24:32;;;;;;;11.25;9.70;;;11.40;68.20;;;;;;4996238;28;20225;-81
2021/01/23 12:27:02;;;;;;;16.20;9.55;;;11.30;69.50;;;;;;4992557;28;20407;-79
2021/01/23 12:29:29;;;;;;;14.93;9.30;;;10.90;70.00;;;;;;4990727;28;20259;-79
2021/01/23 12:31:57;;;;;;;11.27;9.40;;;10.60;70.60;;;;;;4991706;28;20541;-80
2021/01/23 12:34:27;;;;;;;9.60;8.38;;;10.10;72.50;;;;;;4996898;28;20212;-81
2021/01/23 12:36:53;;;;;;;12.98;8.80;;;9.60;74.20;;;;;;4991153;28;20230;-77
2021/01/23 12:39:21;;;;;;;9.13;8.23;;;9.50;75.30;;;;;;4995667;28;20224;-80
2021/01/23 12:41:50;;;;;;;8.77;8.00;;;9.40;74.80;;;;;;4994138;28;20226;-80
2021/01/23 12:44:17;;;;;;;12.90;8.95;;;9.40;74.50;;;;;;5002472;28;20271;-82
2021/01/23 12:46:44;;;;;;;11.80;9.65;;;9.50;75.00;;;;;;4995502;28;20511;-80
2021/01/23 12:49:11;;;;;;;8.85;7.90;;;9.50;73.70;;;;;;4997536;28;20234;-79